Welcome to Crazy Orc, l'antre du jeu de rôles à Lyon. Please login or sign up.

18 Juillet 2024 à 15:51:19

Login with username, password and session length

Crazy Orc, l'antre du jeu de rôles à Lyon - Centre de statistiques

Statistiques générales

Total des membres:
805
Total des messages:
98603
Total des sujets:
4349
Total des catégories:
4
Membres en ligne:
101
Connexions simultanées:
808 - 21 Janvier 2020 à 20:55:59
En ligne aujourd'hui:
237
Total des pages vues:
46116433
Moyenne des inscriptions par jour:
0.26
Moyenne des messages par jour:
22.46
Moyenne des sujets par jour:
1.04
Total des sections:
40
Dernier membre:
Armand
Moyenne d'utilisateurs connectés par jour:
56.6
Statistiques des sexes:
Ne pas afficher: 366
Masculin: 367
Féminin: 72
Pages vues en moyenne par jour:
7270.45

Top 10 des posteurs

ManuDevil
7083
GroumpH
5098
nunch
3857
LeDupontesque
3090
jules
3026
Mandy
2883
Scratchy
2766
MAO
2493
snake
1947
Le0
1878

Top lanceurs de sujets

nunch
600
Morithil
480
ManuDevil
293
GroumpH
246
Scratchy
132
MAO
110
LeDupontesque
106
jules
99
snake
92
CCCP
86

Le plus de temps en ligne

Mandy
133 j 19 h 59 m
GroumpH
112 j 9 h 16 m
CCCP
89 j 3 h 28 m
Nukeflow
73 j 8 h 19 m
ManuDevil
69 j 11 h 1 m
Felipe
61 j 12 h 19 m
dao
56 j 17 h 58 m
nunch
49 j 1 h 52 m
Patate
43 j 11 h 46 m
Rh
42 j 23 h 32 m

Les utilisateurs les plus aimés

ManuDevil
86
Arkana31
76
MJulien
29
Morithil
25
Phil
24
LeDupontesque
24
Lionhell
24
Patate
19
DeReel (il)
16
Haley Lektrik
12

Historique du forum (basé sur l'heure interne du forum)

Résumé annuel Nouveaux sujets Nouveaux messages Nouveaux membres Connexions simultanées Pages vues
* 2024 84 513 72 600 6812633
Juillet 2024 11 23 5 284 358695
Juin 2024 1 30 3 462 1290286
Mai 2024 13 60 3 520 1042723
Avril 2024 16 93 16 600 1613449
Mars 2024 14 105 12 553 672303
Février 2024 17 116 25 349 567612
2024-02-01 0 0 0 131 6303
2024-02-02 0 11 0 203 26658
2024-02-03 1 12 1 172 37899
2024-02-04 0 1 0 160 32245
2024-02-05 0 1 0 139 24693
2024-02-06 0 2 2 189 23325
2024-02-07 0 1 1 349 23159
2024-02-08 0 2 0 158 22333
2024-02-09 0 6 1 143 21856
2024-02-10 0 0 0 88 6649
2024-02-11 0 0 1 22 17006
2024-02-12 1 1 1 31 17556
2024-02-13 0 7 2 52 19726
2024-02-14 0 13 1 307 23310
2024-02-15 0 2 1 107 7916
2024-02-16 1 4 0 117 17041
2024-02-17 0 11 2 107 7802
2024-02-18 0 3 1 149 17382
2024-02-19 2 10 2 162 26173
2024-02-20 0 3 2 128 10376
2024-02-21 0 0 0 149 23429
2024-02-22 0 0 0 149 16758
2024-02-23 11 16 0 162 24745
2024-02-24 0 6 0 167 21675
2024-02-25 0 1 0 100 20883
2024-02-26 1 2 3 102 24966
2024-02-27 0 0 1 100 20020
2024-02-28 0 0 2 123 14979
2024-02-29 0 1 1 140 10749
Janvier 2024 12 86 8 301 1267565
2024-01-01 0 3 1 176 26290
2024-01-02 0 2 0 73 27682
2024-01-03 0 1 0 141 58787
2024-01-04 0 1 0 75 27645
2024-01-05 2 7 2 95 5376
2024-01-06 0 1 1 81 5729
2024-01-07 0 5 0 274 36707
2024-01-08 0 1 0 113 31398
2024-01-09 0 0 0 100 23629
2024-01-10 1 2 0 127 59280
2024-01-11 0 5 0 130 66073
2024-01-12 0 3 0 150 70475
2024-01-13 0 5 0 137 60693
2024-01-14 0 3 0 111 49196
2024-01-15 0 0 0 154 60176
2024-01-16 0 9 0 151 70691
2024-01-17 0 6 0 132 34747
2024-01-18 0 2 1 179 33269
2024-01-19 0 1 0 150 41664
2024-01-20 0 0 0 180 7271
2024-01-21 0 1 0 168 51468
2024-01-22 0 0 2 155 56069
2024-01-23 0 0 0 174 63172
2024-01-24 0 0 0 178 84056
2024-01-25 0 0 1 178 69243
2024-01-26 8 9 0 201 31447
2024-01-27 0 2 0 249 31179
2024-01-28 1 6 0 196 31110
2024-01-29 0 2 0 162 29933
2024-01-30 0 5 0 301 12636
2024-01-31 0 4 0 156 10474
* 2023 193 1234 127 260 5271275
Décembre 2023 17 64 5 260 1399734
Novembre 2023 12 123 14 217 909538
Octobre 2023 21 141 12 187 333148
Septembre 2023 19 182 18 138 366302
2023-09-01 1 11 1 56 7532
2023-09-02 2 9 2 77 7065
2023-09-03 0 10 1 83 6303
2023-09-04 0 18 2 82 7311
2023-09-05 0 12 0 82 9863
2023-09-06 1 2 2 86 7526
2023-09-07 0 1 0 86 6757
2023-09-08 0 2 0 100 8489
2023-09-09 0 2 0 89 12929
2023-09-10 1 7 1 83 15504
2023-09-11 0 8 1 80 10732
2023-09-12 0 3 0 70 7406
2023-09-13 0 1 1 63 5178
2023-09-14 0 4 0 94 47309
2023-09-15 0 1 0 99 58372
2023-09-16 1 5 0 95 8951
2023-09-17 2 8 0 114 10712
2023-09-18 1 12 1 118 11006
2023-09-19 0 1 0 130 9781
2023-09-20 1 4 1 116 9906
2023-09-21 0 5 0 105 9189
2023-09-22 1 3 1 118 12237
2023-09-23 0 4 0 113 12713
2023-09-24 6 11 0 89 4373
2023-09-25 1 12 0 83 22273
2023-09-26 0 9 0 87 8790
2023-09-27 0 6 1 97 8481
2023-09-28 1 2 1 138 7048
2023-09-29 0 6 0 21 5573
2023-09-30 0 3 2 23 6993
Août 2023 8 42 7 130 236673
2023-08-01 0 3 0 88 9908
2023-08-02 0 1 0 92 25688
2023-08-03 0 0 1 130 22181
2023-08-04 0 0 0 94 6830
2023-08-05 0 0 0 104 7107
2023-08-06 0 0 0 97 8220
2023-08-07 0 0 0 91 8585
2023-08-08 0 1 0 84 6523
2023-08-09 0 2 0 100 8113
2023-08-10 0 1 0 79 6452
2023-08-11 0 0 0 56 3679
2023-08-12 0 0 0 14 5633
2023-08-13 0 2 0 13 9543
2023-08-14 0 0 0 15 7692
2023-08-15 0 0 0 17 4167
2023-08-16 0 1 1 17 5663
2023-08-17 0 2 0 17 6721
2023-08-18 1 3 1 22 6957
2023-08-19 0 0 0 18 6175
2023-08-20 0 2 0 24 6346
2023-08-21 5 8 0 22 6595
2023-08-22 0 0 1 25 6339
2023-08-23 0 0 0 34 5650
2023-08-24 0 0 0 15 3823
2023-08-25 0 1 0 16 6923
2023-08-26 0 2 0 20 5518
2023-08-27 1 1 3 75 7526
2023-08-28 0 2 0 31 5528
2023-08-29 1 2 0 38 6623
2023-08-30 0 0 0 23 5772
2023-08-31 0 8 0 52 4193
Juillet 2023 6 39 4 140 269774
Juin 2023 23 109 10 159 303581
2023-06-01 0 1 0 94 7752
2023-06-02 0 6 0 97 7194
2023-06-03 0 2 0 103 10051
2023-06-04 1 6 1 111 8104
2023-06-05 0 4 0 111 9173
2023-06-06 0 1 1 131 7225
2023-06-07 0 3 1 109 7310
2023-06-08 0 3 0 112 17451
2023-06-09 0 3 0 119 34658
2023-06-10 2 9 0 140 13252
2023-06-11 0 0 1 93 8027
2023-06-12 0 1 0 111 8737
2023-06-13 0 1 0 108 11551
2023-06-14 0 4 0 111 14152
2023-06-15 0 0 0 93 12664
2023-06-16 1 2 0 136 8981
2023-06-17 0 0 2 117 10912
2023-06-18 0 2 0 110 8835
2023-06-19 1 6 1 115 22130
2023-06-20 0 3 0 110 8765
2023-06-21 1 5 2 120 7670
2023-06-22 0 3 0 79 6701
2023-06-23 0 7 0 159 8623
2023-06-24 0 4 0 99 8140
2023-06-25 0 4 1 79 11473
2023-06-26 2 7 0 73 6805
2023-06-27 0 2 0 97 4789
2023-06-28 15 18 0 65 4268
2023-06-29 0 1 0 43 5113
2023-06-30 0 1 0 58 3075
Mai 2023 23 124 16 182 262587
Avril 2023 19 159 11 174 284480
Mars 2023 13 86 6 155 330966
Février 2023 13 62 5 165 274947
Janvier 2023 19 103 19 148 299545
* 2022 183 1154 96 261 3778792
Décembre 2022 9 37 1 161 306381
Novembre 2022 16 103 6 261 350274
Octobre 2022 11 120 17 208 290108
2022-10-01 0 0 0 46 10196
2022-10-02 0 2 0 45 6099
2022-10-03 0 6 2 63 9412
2022-10-04 1 5 1 114 7925
2022-10-05 0 2 0 119 10788
2022-10-06 0 2 0 135 8531
2022-10-07 0 5 1 86 8823
2022-10-08 0 2 1 99 11829
2022-10-09 0 0 0 117 10515
2022-10-10 0 0 0 132 13266
2022-10-11 0 7 1 144 10128
2022-10-12 1 9 1 208 15786
2022-10-13 1 5 1 182 15119
2022-10-14 2 2 0 147 13116
2022-10-15 1 8 1 192 17135
2022-10-16 0 0 2 155 8626
2022-10-17 2 5 0 105 7879
2022-10-18 0 0 0 58 5903
2022-10-19 0 2 0 64 7645
2022-10-20 0 10 1 106 4198
2022-10-21 0 4 1 56 4202
2022-10-22 0 2 0 122 10015
2022-10-23 0 2 0 96 8013
2022-10-24 0 2 1 77 6882
2022-10-25 1 12 1 96 8317
2022-10-26 2 7 1 110 6687
2022-10-27 0 5 0 51 5051
2022-10-28 0 2 0 69 7681
2022-10-29 0 5 0 68 11986
2022-10-30 0 3 0 65 8226
2022-10-31 0 4 1 131 10129
Septembre 2022 17 115 6 258 357415
Août 2022 15 108 9 147 318817
Juillet 2022 13 69 4 208 308045
Juin 2022 14 76 4 62 333112
Mai 2022 16 118 8 91 339244
2022-05-01 0 6 0 50 6710
2022-05-02 0 2 2 44 5920
2022-05-03 0 2 0 44 6901
2022-05-04 0 6 0 48 11189
2022-05-05 0 1 0 47 12307
2022-05-06 0 1 0 60 23346
2022-05-07 0 6 1 61 29361
2022-05-08 1 5 1 91 19240
2022-05-09 1 12 0 72 14879
2022-05-10 0 2 0 61 15852
2022-05-11 0 0 0 59 11814
2022-05-12 2 14 1 43 8964
2022-05-13 0 5 0 58 6886
2022-05-14 0 2 0 32 8302
2022-05-15 0 0 0 39 10632
2022-05-16 7 9 0 59 11094
2022-05-17 1 6 1 40 9245
2022-05-18 0 3 0 43 9669
2022-05-19 0 3 0 36 10724
2022-05-20 0 4 0 47 13804
2022-05-21 0 5 0 46 8820
2022-05-22 1 2 0 45 8742
2022-05-23 2 2 0 45 9308
2022-05-24 0 4 1 52 9886
2022-05-25 0 2 0 48 7740
2022-05-26 0 3 0 47 8972
2022-05-27 0 2 0 49 7978
2022-05-28 1 3 1 47 7507
2022-05-29 0 2 0 43 5171
2022-05-30 0 3 0 49 8361
2022-05-31 0 1 0 49 9920
Avril 2022 18 133 12 61 254691
2022-04-01 0 6 0 49 15444
2022-04-02 0 2 1 49 8967
2022-04-03 4 5 0 38 8148
2022-04-04 1 9 1 43 10158
2022-04-05 0 3 1 41 13979
2022-04-06 0 8 0 36 9247
2022-04-07 1 5 0 43 12333
2022-04-08 0 4 0 43 10696
2022-04-09 1 5 2 41 14859
2022-04-10 1 7 3 41 17217
2022-04-11 2 5 0 46 14030
2022-04-12 0 1 0 34 9483
2022-04-13 2 4 0 35 6925
2022-04-14 0 7 0 48 6203
2022-04-15 0 7 0 49 6464
2022-04-16 0 5 0 35 4327
2022-04-17 0 0 0 36 4954
2022-04-18 0 1 0 40 4048
2022-04-19 0 9 0 44 5344
2022-04-20 0 0 0 48 4153
2022-04-21 0 3 0 55 8132
2022-04-22 2 7 1 52 9959
2022-04-23 0 3 0 49 7655
2022-04-24 1 1 1 61 6931
2022-04-25 2 6 0 44 7260
2022-04-26 0 2 0 44 5849
2022-04-27 0 2 0 55 5585
2022-04-28 0 5 1 47 6009
2022-04-29 1 9 0 52 5398
2022-04-30 0 2 1 43 4934
Mars 2022 15 123 8 65 281935
Février 2022 17 84 9 58 314588
Janvier 2022 22 68 12 70 324182
* 2021 129 756 53 338 4376522
Décembre 2021 8 37 0 129 661064
2021-12-01 0 1 0 86 10724
2021-12-02 0 6 0 91 7815
2021-12-03 0 0 0 93 7911
2021-12-04 0 5 0 92 10027
2021-12-05 2 2 0 86 10097
2021-12-06 0 0 0 129 7479
2021-12-07 0 0 0 101 8162
2021-12-08 0 2 0 42 6778
2021-12-09 0 0 0 40 7532
2021-12-10 4 6 0 55 7151
2021-12-11 0 1 0 42 9757
2021-12-12 0 0 0 53 12585
2021-12-13 0 2 0 48 10751
2021-12-14 0 0 0 40 13058
2021-12-15 0 1 0 35 11053
2021-12-16 0 3 0 50 9613
2021-12-17 0 1 0 47 11104
2021-12-18 0 0 0 42 9597
2021-12-19 0 2 0 48 9257
2021-12-20 2 2 0 45 10553
2021-12-21 0 0 0 47 10988
2021-12-22 0 0 0 44 14554
2021-12-23 0 1 0 47 43880
2021-12-24 0 1 0 46 49317
2021-12-25 0 0 0 47 49735
2021-12-26 0 0 0 44 48100
2021-12-27 0 1 0 41 54117
2021-12-28 0 0 0 37 47893
2021-12-29 0 0 0 38 54768
2021-12-30 0 0 0 38 48213
2021-12-31 0 0 0 38 48495
Novembre 2021 13 99 4 153 262314
Octobre 2021 20 208 15 159 298103
2021-10-01 0 1 0 56 6171
2021-10-02 0 9 1 86 9181
2021-10-03 1 4 1 72 8747
2021-10-04 0 3 0 68 6532
2021-10-05 2 14 1 76 7922
2021-10-06 0 3 0 125 9753
2021-10-07 0 3 0 120 9963
2021-10-08 1 6 1 99 7587
2021-10-09 1 15 2 86 5434
2021-10-10 0 4 0 93 8119
2021-10-11 0 7 1 86 7114
2021-10-12 1 7 0 85 11069
2021-10-13 2 10 2 130 12013
2021-10-14 0 3 0 119 11498
2021-10-15 1 6 1 136 11138
2021-10-16 0 11 0 159 11492
2021-10-17 0 5 0 139 10881
2021-10-18 0 3 0 130 12452
2021-10-19 0 5 0 104 9710
2021-10-20 3 9 0 85 9720
2021-10-21 0 0 0 111 34450
2021-10-22 2 11 1 69 8430
2021-10-23 1 7 1 87 5533
2021-10-24 1 13 1 74 9651
2021-10-25 0 11 0 89 7704
2021-10-26 3 9 0 83 9231
2021-10-27 0 4 0 79 7575
2021-10-28 1 7 1 76 7069
2021-10-29 0 4 0 75 6460
2021-10-30 0 7 1 88 7194
2021-10-31 0 7 0 98 8310
Septembre 2021 24 171 10 280 285455
2021-09-01 0 3 2 36 8640
2021-09-02 4 5 0 37 5800
2021-09-03 0 10 1 36 5156
2021-09-04 0 2 0 36 6972
2021-09-05 0 1 0 43 4981
2021-09-06 1 11 0 41 6661
2021-09-07 1 12 0 46 10031
2021-09-08 1 4 0 41 12326
2021-09-09 0 5 0 49 26895
2021-09-10 0 6 1 59 9918
2021-09-11 0 3 0 44 5933
2021-09-12 1 6 1 39 4295
2021-09-13 1 6 0 44 7745
2021-09-14 3 10 0 47 10087
2021-09-15 3 18 1 280 10394
2021-09-16 1 7 1 161 10361
2021-09-17 0 4 0 190 12432
2021-09-18 0 2 0 188 15978
2021-09-19 0 2 0 253 13663
2021-09-20 0 1 0 200 15111
2021-09-21 1 3 1 125 8590
2021-09-22 2 6 0 160 8539
2021-09-23 0 0 1 147 9848
2021-09-24 1 4 0 66 9262
2021-09-25 1 6 0 105 6269
2021-09-26 0 7 1 111 9599
2021-09-27 1 7 0 103 8348
2021-09-28 2 15 0 77 7864
2021-09-29 0 5 0 118 7060
2021-09-30 0 0 0 102 6697
Août 2021 11 33 7 73 231609
2021-08-01 0 0 0 28 9012
2021-08-02 0 0 0 33 10340
2021-08-03 0 0 0 48 9087
2021-08-04 0 0 0 39 6385
2021-08-05 0 0 1 40 5603
2021-08-06 0 0 0 40 9211
2021-08-07 0 0 0 40 10577
2021-08-08 0 0 0 36 10060
2021-08-09 0 0 0 40 11728
2021-08-10 0 0 0 55 10109
2021-08-11 0 0 0 37 6508
2021-08-12 0 0 0 39 8136
2021-08-13 1 3 1 41 6454
2021-08-14 2 5 1 37 6972
2021-08-15 0 0 0 43 9840
2021-08-16 0 0 0 38 13142
2021-08-17 0 0 0 45 7592
2021-08-18 0 0 1 38 6557
2021-08-19 0 0 0 37 6038
2021-08-20 2 2 0 37 6461
2021-08-21 0 0 0 48 6027
2021-08-22 0 0 0 40 2939
2021-08-23 0 1 0 35 3225
2021-08-24 0 1 0 41 6669
2021-08-25 3 7 1 50 9922
2021-08-26 1 1 0 73 2986
2021-08-27 0 0 0 35 2451
2021-08-28 0 1 1 33 5309
2021-08-29 0 0 0 32 8982
2021-08-30 2 6 1 32 7294
2021-08-31 0 6 0 42 5993
Juillet 2021 6 8 2 81 305173
2021-07-01 0 0 0 75 10036
2021-07-02 0 0 0 81 8440
2021-07-03 0 0 0 67 13230
2021-07-04 0 0 0 36 8785
2021-07-05 0 0 0 40 9194
2021-07-06 0 0 0 42 10481
2021-07-07 0 0 0 39 7665
2021-07-08 0 0 0 49 10484
2021-07-09 0 0 0 50 10282
2021-07-10 0 0 0 51 10523
2021-07-11 0 0 0 50 8246
2021-07-12 0 0 0 45 7596
2021-07-13 0 0 0 35 7852
2021-07-14 0 0 0 53 8163
2021-07-15 0 0 0 38 9082
2021-07-16 0 0 0 36 8446
2021-07-17 0 0 1 39 9669
2021-07-18 0 1 0 39 9019
2021-07-19 0 0 0 43 11040
2021-07-20 0 0 0 35 11389
2021-07-21 0 0 0 40 7890
2021-07-22 0 0 0 40 7654
2021-07-23 0 0 0 35 8792
2021-07-24 0 0 0 32 8114
2021-07-25 0 0 0 33 6522
2021-07-26 0 1 0 38 7728
2021-07-27 0 0 0 35 9299
2021-07-28 0 0 0 28 6500
2021-07-29 0 0 0 35 36222
2021-07-30 0 0 1 37 7791
2021-07-31 6 6 0 32 9039
Juin 2021 17 31 2 135 311168
2021-06-01 6 7 0 65 11550
2021-06-02 0 0 0 77 12253
2021-06-03 0 1 0 103 12092
2021-06-04 0 0 0 93 8171
2021-06-05 0 0 0 104 7555
2021-06-06 0 0 0 95 7530
2021-06-07 0 0 0 79 8779
2021-06-08 1 3 0 79 10509
2021-06-09 0 1 0 90 8325
2021-06-10 0 0 0 88 8468
2021-06-11 0 0 0 93 9960
2021-06-12 0 1 0 92 10963
2021-06-13 1 1 1 86 7407
2021-06-14 0 0 0 105 6206
2021-06-15 0 0 0 82 32410
2021-06-16 4 6 0 83 12753
2021-06-17 0 0 0 96 11769
2021-06-18 0 2 0 101 7377
2021-06-19 0 1 0 135 12899
2021-06-20 0 0 0 131 10996
2021-06-21 3 4 1 131 11219
2021-06-22 0 0 0 101 8997
2021-06-23 0 1 0 93 7594
2021-06-24 0 0 0 103 9103
2021-06-25 0 0 0 80 9706
2021-06-26 0 0 0 79 9521
2021-06-27 0 0 0 84 11194
2021-06-28 0 0 0 75 8473
2021-06-29 2 2 0 83 8668
2021-06-30 0 1 0 71 8721
Mai 2021 3 31 4 268 597777
Avril 2021 10 51 6 287 308355
Mars 2021 7 24 1 308 444900
2021-03-01 0 0 0 72 8645
2021-03-02 1 2 0 62 7066
2021-03-03 0 1 0 58 5404
2021-03-04 0 0 1 61 5201
2021-03-05 0 0 0 63 8432
2021-03-06 0 0 0 60 4862
2021-03-07 0 1 0 50 4615
2021-03-08 0 0 0 55 4461
2021-03-09 0 0 0 58 6240
2021-03-10 0 0 0 65 8568
2021-03-11 1 3 0 62 4993
2021-03-12 0 1 0 55 5378
2021-03-13 0 0 0 60 4371
2021-03-14 0 1 0 65 5377
2021-03-15 1 1 0 69 7164
2021-03-16 0 1 0 98 8406
2021-03-17 1 6 0 308 16132
2021-03-18 0 0 0 75 162827
2021-03-19 0 0 0 83 38605
2021-03-20 0 2 0 68 10275
2021-03-21 0 0 0 72 11763
2021-03-22 0 0 0 54 8930
2021-03-23 0 0 0 94 11374
2021-03-24 0 0 0 97 12163
2021-03-25 0 0 0 117 11569
2021-03-26 0 1 0 127 11884
2021-03-27 0 1 0 104 7707
2021-03-28 0 0 0 89 8951
2021-03-29 0 0 0 77 10399
2021-03-30 0 0 0 73 11056
2021-03-31 3 3 0 77 12082
Février 2021 5 29 2 338 223056
2021-02-01 1 1 0 54 9051
2021-02-02 0 1 0 50 7915
2021-02-03 0 0 0 48 4645
2021-02-04 0 3 0 48 5872
2021-02-05 0 2 0 48 7890
2021-02-06 0 0 0 47 6585
2021-02-07 0 0 0 70 15429
2021-02-08 0 1 0 54 7692
2021-02-09 3 3 1 58 8579
2021-02-10 0 2 0 69 8517
2021-02-11 0 0 0 59 6724
2021-02-12 0 4 0 61 8593
2021-02-13 0 0 0 63 5515
2021-02-14 0 0 0 62 6322
2021-02-15 1 5 0 69 8207
2021-02-16 0 1 0 75 9081
2021-02-17 0 0 0 338 10115
2021-02-18 0 0 0 79 7644
2021-02-19 0 0 0 106 8262
2021-02-20 0 1 0 78 5723
2021-02-21 0 1 0 41 3073
2021-02-22 0 0 0 84 5600
2021-02-23 0 1 0 86 9974
2021-02-24 0 3 1 116 9261
2021-02-25 0 0 0 142 12642
2021-02-26 0 0 0 140 10029
2021-02-27 0 0 0 79 7214
2021-02-28 0 0 0 78 6902
Janvier 2021 5 34 0 322 447548
* 2020 206 1716 105 808 4713463
Décembre 2020 6 38 2 320 310487
Novembre 2020 12 97 3 352 464426
Octobre 2020 21 169 7 346 497422
2020-10-01 4 11 1 121 13231
2020-10-02 0 15 0 130 15235
2020-10-03 0 0 1 112 12703
2020-10-04 3 10 1 119 108419
2020-10-05 3 15 1 92 60488
2020-10-06 0 16 0 118 11489
2020-10-07 1 8 1 121 10905
2020-10-08 0 9 0 143 14006
2020-10-09 0 2 0 97 9716
2020-10-10 1 4 1 94 11237
2020-10-11 0 2 0 88 10226
2020-10-12 3 7 0 85 9874
2020-10-13 1 9 1 89 12163
2020-10-14 0 11 0 346 16344
2020-10-15 0 4 0 86 10037
2020-10-16 0 0 0 90 9449
2020-10-17 0 0 0 91 10244
2020-10-18 0 9 0 78 8796
2020-10-19 1 3 0 75 7818
2020-10-20 3 9 0 88 7872
2020-10-21 0 5 0 85 8220
2020-10-22 0 10 0 87 10088
2020-10-23 0 2 0 104 13389
2020-10-24 0 0 0 95 12852
2020-10-25 0 2 0 96 11374
2020-10-26 0 1 0 98 10283
2020-10-27 1 2 0 105 7650
2020-10-28 0 2 0 107 10881
2020-10-29 0 0 0 112 13782
2020-10-30 0 1 0 114 15295
2020-10-31 0 0 0 111 13356
Septembre 2020 30 356 15 133 325183
Août 2020 16 147 7 163 471897
Juillet 2020 16 77 2 100 345760
Juin 2020 17 60 5 127 452817
2020-06-01 0 1 0 97 7843
2020-06-02 7 8 0 99 6624
2020-06-03 0 0 0 116 9483
2020-06-04 0 0 0 127 10949
2020-06-05 0 0 0 54 8472
2020-06-06 0 0 0 60 11941
2020-06-07 0 3 0 60 62107
2020-06-08 0 1 1 59 116791
2020-06-09 0 1 0 67 15021
2020-06-10 2 6 0 51 11623
2020-06-11 0 0 0 50 8819
2020-06-12 0 0 0 54 9812
2020-06-13 0 0 1 57 9517
2020-06-14 0 1 0 54 10890
2020-06-15 2 5 0 50 11230
2020-06-16 0 3 0 66 11587
2020-06-17 0 0 1 53 7877
2020-06-18 0 0 0 53 7889
2020-06-19 0 0 0 47 8061
2020-06-20 0 1 0 49 10663
2020-06-21 0 0 0 49 8505
2020-06-22 0 2 0 51 8058
2020-06-23 0 1 0 50 9272
2020-06-24 1 7 1 59 9508
2020-06-25 0 4 0 53 9909
2020-06-26 0 1 0 53 10161
2020-06-27 0 0 1 58 11373
2020-06-28 0 0 0 63 8637
2020-06-29 5 12 0 67 8575
2020-06-30 0 3 0 56 11620
Mai 2020 7 22 3 295 321652
Avril 2020 10 47 1 189 300030
Mars 2020 24 253 3 199 467854
Février 2020 18 171 9 323 281798
2020-02-01 0 6 1 110 22857
2020-02-02 0 4 0 113 19748
2020-02-03 3 6 2 225 8437
2020-02-04 0 4 0 323 5481
2020-02-05 0 1 1 124 6151
2020-02-06 0 4 0 123 9304
2020-02-07 0 5 0 154 11432
2020-02-08 0 4 0 133 9152
2020-02-09 0 3 0 131 10284
2020-02-10 0 2 0 110 5432
2020-02-11 3 10 0 135 4471
2020-02-12 0 5 0 126 6869
2020-02-13 0 5 0 128 11009
2020-02-14 1 4 0 156 5546
2020-02-15 0 2 0 171 6296
2020-02-16 0 5 1 133 5755
2020-02-17 4 21 1 132 8743
2020-02-18 0 18 0 138 7508
2020-02-19 0 2 0 137 7400
2020-02-20 0 12 0 143 8914
2020-02-21 1 9 1 154 8884
2020-02-22 0 15 0 167 11618
2020-02-23 0 1 0 164 12863
2020-02-24 5 10 0 167 13726
2020-02-25 0 1 0 196 13396
2020-02-26 1 4 0 188 11554
2020-02-27 0 5 1 132 9231
2020-02-28 0 3 0 145 10882
2020-02-29 0 0 1 132 8855
Janvier 2020 29 279 48 808 474137
* 2019 246 3411 313 446 3308531
Décembre 2019 18 159 26 446 351248
2019-12-01 0 4 1 277 11373
2019-12-02 1 14 1 135 11534
2019-12-03 0 5 1 110 9010
2019-12-04 0 4 2 106 7741
2019-12-05 0 6 0 330 8461
2019-12-06 3 13 1 335 12098
2019-12-07 0 4 0 215 16251
2019-12-08 0 0 2 114 35635
2019-12-09 4 16 3 170 9809
2019-12-10 1 4 0 112 11124
2019-12-11 0 5 1 299 9463
2019-12-12 0 3 1 306 9544
2019-12-13 0 2 0 366 8347
2019-12-14 0 3 0 446 11186
2019-12-15 1 13 0 367 10258
2019-12-16 2 14 0 109 9322
2019-12-17 0 13 0 127 9034
2019-12-18 1 5 0 233 9507
2019-12-19 1 2 4 112 10126
2019-12-20 0 0 0 104 9567
2019-12-21 0 6 1 116 10009
2019-12-22 0 0 1 105 10019
2019-12-23 0 0 0 125 10592
2019-12-24 0 2 0 127 11029
2019-12-25 0 0 0 112 10531
2019-12-26 0 1 0 138 11502
2019-12-27 0 3 0 113 14168
2019-12-28 0 0 4 115 20305
2019-12-29 4 5 1 119 11114
2019-12-30 0 7 1 127 5225
2019-12-31 0 5 1 125 7364
Novembre 2019 16 245 33 325 524135
Octobre 2019 24 272 59 121 189762
Septembre 2019 25 386 54 141 376708
Août 2019 22 257 31 122 225760
Juillet 2019 24 281 62 149 190301
Juin 2019 11 171 3 112 246519
Mai 2019 23 311 10 167 218891
Avril 2019 21 294 9 174 311459
Mars 2019 22 372 16 142 344146
2019-03-01 0 30 0 102 3220
2019-03-02 0 23 0 102 3097
2019-03-03 0 4 0 99 2763
2019-03-04 0 5 0 105 2518
2019-03-05 0 11 0 99 3314
2019-03-06 0 11 1 97 5983
2019-03-07 1 6 2 102 6254
2019-03-08 1 24 1 100 9845
2019-03-09 1 11 1 104 9974
2019-03-10 0 18 0 109 12925
2019-03-11 3 18 1 124 22284
2019-03-12 0 14 0 120 15724
2019-03-13 1 23 1 125 13212
2019-03-14 0 7 1 132 13861
2019-03-15 2 17 1 112 12323
2019-03-16 0 6 1 135 11288
2019-03-17 0 6 0 129 10798
2019-03-18 1 8 0 122 10562
2019-03-19 1 7 0 126 9470
2019-03-20 1 16 1 122 10084
2019-03-21 1 12 1 128 13887
2019-03-22 0 4 0 129 13984
2019-03-23 2 9 0 123 14498
2019-03-24 4 13 0 129 36957
2019-03-25 0 14 0 134 17651
2019-03-26 1 11 1 126 9572
2019-03-27 0 4 0 56 8627
2019-03-28 0 14 1 142 8864
2019-03-29 0 5 0 126 11607
2019-03-30 0 2 0 131 10223
2019-03-31 2 19 2 129 8777
Février 2019 18 288 4 110 142132
Janvier 2019 22 375 6 113 187470
* 2018 338 6176 81 641 2624946
Décembre 2018 43 306 8 253 421582
2018-12-01 1 13 0 108 10961
2018-12-02 0 3 1 109 14766
2018-12-03 0 17 0 108 18344
2018-12-04 0 4 0 111 20929
2018-12-05 1 19 1 111 11950
2018-12-06 8 18 0 111 14660
2018-12-07 13 27 0 107 14549
2018-12-08 2 12 0 100 8121
2018-12-09 4 26 0 97 8912
2018-12-10 0 12 0 94 9173
2018-12-11 1 7 0 104 7972
2018-12-12 0 13 0 253 12240
2018-12-13 2 10 0 245 6172
2018-12-14 0 17 1 134 6149
2018-12-15 0 6 0 160 5846
2018-12-16 2 14 1 106 5984
2018-12-17 2 10 0 104 5353
2018-12-18 0 9 0 98 5314
2018-12-19 0 5 0 100 3727
2018-12-20 0 3 0 96 2596
2018-12-21 0 5 0 23 4142
2018-12-22 0 2 0 24 6219
2018-12-23 0 5 0 21 8400
2018-12-24 0 2 0 18 10302
2018-12-25 1 2 0 23 11913
2018-12-26 0 7 0 22 8611
2018-12-27 1 1 1 24 17549
2018-12-28 0 2 2 24 151295
2018-12-29 5 13 0 49 2922
2018-12-30 0 17 1 49 3800
2018-12-31 0 5 0 46 2711
Novembre 2018 26 467 9 641 383363
Octobre 2018 34 527 6 321 248725
Septembre 2018 34 641 10 127 216306
2018-09-01 0 20 0 24 4424
2018-09-02 0 20 0 65 4793
2018-09-03 3 22 0 85 7578
2018-09-04 0 24 0 84 8791
2018-09-05 1 20 0 84 9905
2018-09-06 0 36 1 83 11031
2018-09-07 1 20 0 87 10613
2018-09-08 5 19 0 83 13818
2018-09-09 0 26 0 92 9656
2018-09-10 0 27 1 20 3224
2018-09-11 4 21 1 27 4264
2018-09-12 1 51 1 24 2429
2018-09-13 3 46 2 20 7949
2018-09-14 1 20 0 91 11369
2018-09-15 0 14 0 95 9802
2018-09-16 1 34 0 104 6636
2018-09-17 0 20 0 94 6787
2018-09-18 0 13 0 99 5082
2018-09-19 1 16 0 101 8725
2018-09-20 3 10 1 105 5461
2018-09-21 2 27 1 93 5926
2018-09-22 1 28 0 115 6599
2018-09-23 0 15 0 102 6921
2018-09-24 1 14 1 103 6887
2018-09-25 0 17 0 114 7190
2018-09-26 1 10 0 111 7736
2018-09-27 0 14 0 116 7667
2018-09-28 4 13 0 127 6767
2018-09-29 0 7 1 99 2850
2018-09-30 1 17 0 36 5426
Août 2018 32 583 16 101 188648
2018-08-01 0 26 0 98 6784
2018-08-02 0 29 0 101 6795
2018-08-03 0 11 0 93 6370
2018-08-04 5 19 1 90 6653
2018-08-05 4 23 0 93 6519
2018-08-06 0 24 0 95 6142
2018-08-07 2 23 1 94 5013
2018-08-08 0 18 0 93 6325
2018-08-09 1 9 0 98 6608
2018-08-10 1 13 1 101 6723
2018-08-11 0 17 1 94 6721
2018-08-12 1 9 2 92 6116
2018-08-13 2 19 0 93 6356
2018-08-14 0 5 0 90 6043
2018-08-15 1 16 0 93 6200
2018-08-16 1 34 0 89 6859
2018-08-17 0 25 0 86 5971
2018-08-18 0 27 1 90 6101
2018-08-19 4 24 0 94 6672
2018-08-20 0 10 1 83 6150
2018-08-21 1 9 2 93 5405
2018-08-22 1 24 0 90 4343
2018-08-23 3 23 3 89 5993
2018-08-24 1 54 3 92 7389
2018-08-25 0 13 0 84 5312
2018-08-26 0 3 0 83 5702
2018-08-27 0 9 0 82 5196
2018-08-28 2 10 0 84 5401
2018-08-29 1 8 0 82 4297
2018-08-30 1 19 0 27 4663
2018-08-31 0 30 0 22 7826
Juillet 2018 21 386 3 104 182475
Juin 2018 31 442 3 110 213303
Mai 2018 21 422 4 107 174393
Avril 2018 25 564 5 104 159849
Mars 2018 20 634 4 96 152933
Février 2018 25 631 7 93 121912
Janvier 2018 26 573 6 94 161457
* 2017 346 6100 56 180 1675168
Décembre 2017 37 499 6 91 136063
Novembre 2017 37 675 6 93 169670
Octobre 2017 15 426 2 93 151449
Septembre 2017 28 548 5 94 135543
Août 2017 29 384 6 99 148097
2017-08-01 0 9 0 68 3543
2017-08-02 0 12 1 66 2932
2017-08-03 0 7 0 64 3100
2017-08-04 1 8 0 83 3375
2017-08-05 1 8 0 81 4004
2017-08-06 2 6 1 80 3731
2017-08-07 6 14 1 85 3850
2017-08-08 2 3 0 76 4998
2017-08-09 0 13 1 72 4403
2017-08-10 3 6 0 75 3696
2017-08-11 0 6 0 74 2479
2017-08-12 0 7 0 81 4043
2017-08-13 0 9 0 73 4128
2017-08-14 0 14 0 73 3594
2017-08-15 2 7 0 71 3835
2017-08-16 1 11 0 70 3779
2017-08-17 0 13 0 82 3941
2017-08-18 0 7 0 82 3689
2017-08-19 0 8 0 19 1560
2017-08-20 0 11 0 85 2353
2017-08-21 0 15 0 99 4536
2017-08-22 2 37 0 91 4987
2017-08-23 0 13 0 81 4153
2017-08-24 5 24 0 87 5297
2017-08-25 1 31 0 79 4356
2017-08-26 0 12 0 85 4846
2017-08-27 1 23 0 83 6285
2017-08-28 0 21 0 98 6070
2017-08-29 0 5 0 85 5964
2017-08-30 1 14 1 79 25924
2017-08-31 1 10 1 82 4646
Juillet 2017 25 490 5 87 176472
Juin 2017 33 603 4 89 156248
2017-06-01 0 8 0 75 4239
2017-06-02 1 17 1 65 4409
2017-06-03 0 12 0 72 4164
2017-06-04 0 3 0 70 3563
2017-06-05 2 46 2 75 5265
2017-06-06 1 33 0 68 4164
2017-06-07 0 20 0 89 5315
2017-06-08 0 14 0 87 7512
2017-06-09 0 18 0 88 7578
2017-06-10 1 2 1 80 6209
2017-06-11 1 10 0 78 4584
2017-06-12 1 25 0 77 6725
2017-06-13 1 13 0 89 5967
2017-06-14 0 8 0 80 4236
2017-06-15 0 8 0 77 5192
2017-06-16 0 23 0 66 4501
2017-06-17 2 19 0 66 5211
2017-06-18 1 40 0 68 5927
2017-06-19 3 39 0 66 5852
2017-06-20 0 21 0 67 5460
2017-06-21 0 3 0 71 7510
2017-06-22 1 28 0 65 5213
2017-06-23 8 39 0 74 5330
2017-06-24 2 24 0 66 4707
2017-06-25 1 19 0 61 5314
2017-06-26 1 50 0 62 7390
2017-06-27 1 13 0 56 4039
2017-06-28 2 17 0 63 3554
2017-06-29 0 16 0 79 3830
2017-06-30 3 15 0 64 3288
Mai 2017 26 470 2 99 181189
Avril 2017 31 490 5 180 139896
Mars 2017 27 432 3 119 90981
Février 2017 31 587 7 87 74924
2017-02-01 1 14 0 55 2090
2017-02-02 0 10 0 26 2549
2017-02-03 2 38 0 74 3460
2017-02-04 0 3 0 75 4033
2017-02-05 4 34 1 66 4596
2017-02-06 3 76 1 73 4948
2017-02-07 1 30 0 76 4581
2017-02-08 0 19 0 77 4379
2017-02-09 1 26 2 70 4735
2017-02-10 1 27 0 70 3647
2017-02-11 0 10 0 87 3878
2017-02-12 2 13 0 82 3838
2017-02-13 2 70 0 81 4357
2017-02-14 4 31 0 16 1711
2017-02-15 2 25 0 24 3776
2017-02-16 2 20 1 16 3155
2017-02-17 0 15 0 17 2432
2017-02-18 1 10 0 16 1365
2017-02-19 0 13 1 15 1380
2017-02-20 1 27 1 25 1662
2017-02-21 2 8 0 17 1136
2017-02-22 1 12 0 19 946
2017-02-23 0 20 0 25 1535
2017-02-24 1 10 0 17 879
2017-02-25 0 8 0 20 940
2017-02-26 0 10 0 18 1219
2017-02-27 0 5 0 15 954
2017-02-28 0 3 0 13 743
Janvier 2017 27 496 5 80 114636
* 2016 389 7721 79 245 2075605
Décembre 2016 34 533 2 170 118206
2016-12-01 0 1 0 74 3445
2016-12-02 0 8 0 55 3761
2016-12-03 0 7 0 58 2184
2016-12-04 9 30 0 53 2958
2016-12-05 0 35 0 65 4219
2016-12-06 2 23 0 64 3665
2016-12-07 1 23 0 60 4594
2016-12-08 2 17 0 125 6276
2016-12-09 1 21 0 76 3458
2016-12-10 2 15 2 61 3661
2016-12-11 1 37 0 68 3369
2016-12-12 3 11 0 63 2902
2016-12-13 0 10 0 59 3821
2016-12-14 1 18 0 74 4666
2016-12-15 0 18 0 72 3378
2016-12-16 1 19 0 35 2487
2016-12-17 0 8 0 73 2573
2016-12-18 0 11 0 81 15525
2016-12-19 1 15 0 61 3437
2016-12-20 0 9 0 56 3667
2016-12-21 0 15 0 54 2974
2016-12-22 0 25 0 56 2993
2016-12-23 0 13 0 56 3867
2016-12-24 0 10 0 55 2712
2016-12-25 1 11 0 170 3278
2016-12-26 3 10 0 72 3609
2016-12-27 3 23 0 59 2265
2016-12-28 1 21 0 51 3618
2016-12-29 0 34 0 55 2903
2016-12-30 2 13 0 58 3351
2016-12-31 0 22 0 54 2590
Novembre 2016 34 586 6 245 122991
Octobre 2016 43 726 7 191 160217
2016-10-01 0 2 0 77 5321
2016-10-02 1 21 0 58 3379
2016-10-03 0 20 0 65 4029
2016-10-04 4 16 0 54 5012
2016-10-05 2 26 1 54 8464
2016-10-06 2 23 0 54 4844
2016-10-07 3 30 0 58 4198
2016-10-08 0 20 0 79 5202
2016-10-09 2 16 0 139 7188
2016-10-10 0 23 0 67 5666
2016-10-11 5 27 0 65 5851
2016-10-12 1 57 0 55 5424
2016-10-13 4 46 1 60 5322
2016-10-14 3 27 0 63 4776
2016-10-15 6 27 0 191 5482
2016-10-16 1 37 1 83 5433
2016-10-17 3 23 0 82 4868
2016-10-18 0 9 0 66 3634
2016-10-19 0 13 1 64 4158
2016-10-20 0 22 1 56 15180
2016-10-21 0 14 0 55 4340
2016-10-22 1 19 0 57 3387
2016-10-23 0 3 0 30 2919
2016-10-24 1 40 1 78 4044
2016-10-25 2 31 0 76 4859
2016-10-26 0 26 0 72 5816
2016-10-27 0 20 0 72 3954
2016-10-28 0 19 0 70 4387
2016-10-29 0 26 0 63 4333
2016-10-30 1 16 0 66 4530
2016-10-31 1 27 1 77 4217
Septembre 2016 26 657 9 85 157449
Août 2016 31 721 9 114 169873
2016-08-01 0 34 0 56 15771
2016-08-02 1 24 0 49 4965
2016-08-03 0 15 0 54 4374
2016-08-04 0 39 0 46 4547
2016-08-05 1 46 1 42 4740
2016-08-06 0 18 0 49 4109
2016-08-07 9 43 2 54 3599
2016-08-08 1 25 0 48 3592
2016-08-09 0 15 0 49 3725
2016-08-10 0 19 0 45 4264
2016-08-11 1 9 0 44 3140
2016-08-12 1 24 0 45 4209
2016-08-13 0 13 2 48 4850
2016-08-14 2 31 2 46 4216
2016-08-15 0 27 0 25 3114
2016-08-16 1 23 0 30 2754
2016-08-17 1 30 0 30 3105
2016-08-18 0 16 0 60 3872
2016-08-19 0 27 0 58 4655
2016-08-20 1 23 0 72 4528
2016-08-21 0 6 0 64 4231
2016-08-22 0 19 0 114 6004
2016-08-23 1 25 0 103 5871
2016-08-24 1 24 0 59 3064
2016-08-25 0 7 0 90 16785
2016-08-26 1 16 0 69 17998
2016-08-27 0 12 0 72 4035
2016-08-28 7 42 1 73 3576
2016-08-29 0 27 0 77 5294
2016-08-30 1 27 1 71 5843
2016-08-31 1 15 0 69 5043
Juillet 2016 19 513 3 58 166690
2016-07-01 0 12 0 45 7913
2016-07-02 1 14 0 53 5460
2016-07-03 0 12 0 43 5640
2016-07-04 0 21 0 51 5125
2016-07-05 0 19 0 53 19299
2016-07-06 1 26 0 47 4798
2016-07-07 1 14 1 45 5226
2016-07-08 0 17 0 29 4376
2016-07-09 2 9 1 33 3581
2016-07-10 0 17 0 30 3953
2016-07-11 0 19 0 33 3994
2016-07-12 0 6 0 34 4003
2016-07-13 0 6 0 29 3703
2016-07-14 0 9 0 36 3393
2016-07-15 0 12 0 46 3985
2016-07-16 0 8 0 49 3862
2016-07-17 1 15 0 46 6224
2016-07-18 3 49 0 48 9490
2016-07-19 5 19 0 58 12133
2016-07-20 1 27 0 53 6421
2016-07-21 0 15 0 44 4051
2016-07-22 1 24 0 35 2980
2016-07-23 0 9 0 46 2786
2016-07-24 0 5 0 50 3313
2016-07-25 0 18 0 48 3778
2016-07-26 1 16 0 49 3234
2016-07-27 1 13 1 45 3378
2016-07-28 0 28 0 42 4140
2016-07-29 0 14 0 54 4296
2016-07-30 0 16 0 49 6668
2016-07-31 1 24 0 56 5487
Juin 2016 30 565 5 53 211715
2016-06-01 0 23 0 50 5705
2016-06-02 0 11 0 43 5378
2016-06-03 2 19 1 44 5189
2016-06-04 3 11 1 41 4784
2016-06-05 0 5 0 43 4968
2016-06-06 0 12 0 42 4648
2016-06-07 1 23 0 38 4900
2016-06-08 3 37 0 44 5735
2016-06-09 0 14 0 45 5120
2016-06-10 1 34 0 44 6103
2016-06-11 1 16 0 41 10876
2016-06-12 2 17 1 41 13531
2016-06-13 1 35 0 53 6090
2016-06-14 3 21 1 41 5179
2016-06-15 0 17 0 51 5317
2016-06-16 1 28 1 42 5293
2016-06-17 1 21 0 44 5043
2016-06-18 1 23 0 43 5316
2016-06-19 3 20 0 42 5955
2016-06-20 2 35 0 42 6606
2016-06-21 1 25 0 44 7531
2016-06-22 0 23 0 38 6542
2016-06-23 0 25 0 42 7081
2016-06-24 0 11 0 43 8292
2016-06-25 0 10 0 44 10674
2016-06-26 0 7 0 44 4154
2016-06-27 2 5 0 41 6089
2016-06-28 1 12 0 38 13559
2016-06-29 1 15 0 43 13424
2016-06-30 0 10 0 53 12633
Mai 2016 40 1116 8 94 166514
Avril 2016 27 529 7 65 155208
2016-04-01 3 38 2 30 3618
2016-04-02 0 23 1 23 3917
2016-04-03 3 45 1 65 6292
2016-04-04 3 45 0 31 4738
2016-04-05 0 6 0 26 3350
2016-04-06 0 15 0 22 4462
2016-04-07 1 13 1 21 3485
2016-04-08 0 9 0 23 3328
2016-04-09 2 17 0 24 3870
2016-04-10 0 13 0 25 4267
2016-04-11 0 19 0 55 6024
2016-04-12 1 16 0 59 14106
2016-04-13 4 14 0 59 11237
2016-04-14 0 14 0 52 5426
2016-04-15 1 14 0 20 3457
2016-04-16 0 7 0 50 5198
2016-04-17 0 2 0 49 5204
2016-04-18 1 17 1 20 4013
2016-04-19 0 11 1 20 3807
2016-04-20 1 17 0 23 3488
2016-04-21 0 16 0 25 3419
2016-04-22 0 21 0 37 4063
2016-04-23 0 8 0 36 4166
2016-04-24 1 14 0 37 5654
2016-04-25 2 25 0 65 6602
2016-04-26 0 16 0 63 5983
2016-04-27 0 20 0 49 6244
2016-04-28 1 12 0 54 6223
2016-04-29 3 29 0 22 4065
2016-04-30 0 13 0 56 5502
Mars 2016 35 513 11 88 224056
Février 2016 35 640 4 96 192454
2016-02-01 1 22 0 74 8459
2016-02-02 0 20 0 87 6602
2016-02-03 2 37 0 76 17946
2016-02-04 0 19 0 64 5160
2016-02-05 1 28 0 73 4553
2016-02-06 2 27 0 78 4715
2016-02-07 4 24 0 69 4878
2016-02-08 0 21 0 22 2514
2016-02-09 0 10 0 72 6304
2016-02-10 1 10 0 90 4785
2016-02-11 1 27 0 77 5427
2016-02-12 0 34 0 82 5486
2016-02-13 1 28 1 77 6932
2016-02-14 1 24 0 82 7091
2016-02-15 3 42 1 81 5791
2016-02-16 1 25 1 75 6305
2016-02-17 2 35 0 95 5664
2016-02-18 2 36 0 76 5744
2016-02-19 1 24 0 76 5288
2016-02-20 4 21 0 96 5390
2016-02-21 2 14 1 70 5007
2016-02-22 1 24 0 84 5259
2016-02-23 2 21 0 78 6312
2016-02-24 0 11 0 80 7832
2016-02-25 1 5 0 79 5226
2016-02-26 0 10 0 70 5018
2016-02-27 2 21 0 75 5289
2016-02-28 0 9 0 83 12718
2016-02-29 0 11 0 72 14759
Janvier 2016 35 622 8 95 230232
* 2015 373 6684 79 100 1549803
Décembre 2015 28 499 7 68 140303
Novembre 2015 40 724 5 35 146607
2015-11-01 1 18 0 27 4452
2015-11-02 0 9 0 24 5327
2015-11-03 1 7 0 22 11240
2015-11-04 0 0 0 18 11102
2015-11-05 0 4 0 24 12062
2015-11-06 1 19 0 20 6702
2015-11-07 7 38 0 21 3288
2015-11-08 0 25 0 20 5256
2015-11-09 0 32 0 22 3384
2015-11-10 0 11 0 21 2914
2015-11-11 0 8 0 22 2384
2015-11-12 0 24 0 30 2736
2015-11-13 0 32 0 20 2709
2015-11-14 2 21 1 24 3133
2015-11-15 2 28 0 21 18160
2015-11-16 0 28 0 22 4664
2015-11-17 0 22 0 35 3181
2015-11-18 6 48 1 20 3200
2015-11-19 1 28 0 29 3049
2015-11-20 10 39 2 20 2941
2015-11-21 1 10 0 17 3452
2015-11-22 0 33 0 18 4436
2015-11-23 1 21 1 32 4524
2015-11-24 1 28 0 23 5198
2015-11-25 1 23 0 19 4024
2015-11-26 1 29 0 15 2788
2015-11-27 0 39 0 16 3090
2015-11-28 1 29 0 20 2052
2015-11-29 1 29 0 18 2495
2015-11-30 2 42 0 24 2664
Octobre 2015 32 760 10 84 227528
2015-10-01 1 18 0 82 8525
2015-10-02 1 10 0 80 4829
2015-10-03 0 7 0 13 2541
2015-10-04 0 7 0 74 5391
2015-10-05 3 45 2 39 10558
2015-10-06 4 42 1 84 20928
2015-10-07 0 30 0 79 21334
2015-10-08 0 12 0 39 12723
2015-10-09 1 14 2 22 4574
2015-10-10 0 8 0 80 5752
2015-10-11 1 36 0 23 4613
2015-10-12 3 25 0 23 3928
2015-10-13 0 35 0 20 3575
2015-10-14 3 25 0 79 9055
2015-10-15 1 32 0 22 7638
2015-10-16 1 43 0 82 8658
2015-10-17 0 34 0 62 6865
2015-10-18 2 31 0 66 5798
2015-10-19 0 21 0 73 5660
2015-10-20 1 29 0 23 4062
2015-10-21 0 22 0 28 20035
2015-10-22 1 22 1 27 6384
2015-10-23 2 15 0 25 6058
2015-10-24 2 27 2 26 4323
2015-10-25 0 11 0 32 4915
2015-10-26 2 22 0 31 4192
2015-10-27 0 26 1 41 5915
2015-10-28 1 28 0 41 5310
2015-10-29 2 29 0 21 4485
2015-10-30 0 38 0 23 4216
2015-10-31 0 16 1 27 4688
Septembre 2015 40 948 13 100 169012
2015-09-01 3 40 0 23 4812
2015-09-02 0 52 2 72 5791
2015-09-03 0 21 0 16 4722
2015-09-04 2 20 1 67 4506
2015-09-05 2 40 2 79 8360
2015-09-06 1 58 0 21 4206
2015-09-07 0 27 1 17 3924
2015-09-08 6 44 0 100 9516
2015-09-09 1 26 0 74 6952
2015-09-10 0 37 1 73 5976
2015-09-11 0 43 0 80 7212
2015-09-12 0 23 0 81 5584
2015-09-13 0 30 0 74 5189
2015-09-14 1 25 1 19 3457
2015-09-15 2 18 0 20 2649
2015-09-16 1 23 0 62 4565
2015-09-17 0 10 0 59 5055
2015-09-18 0 36 0 72 4251
2015-09-19 1 36 0 73 4774
2015-09-20 1 41 1 69 4977
2015-09-21 1 23 0 75 11093
2015-09-22 6 28 1 22 3585
2015-09-23 0 33 0 65 5593
2015-09-24 1 42 0 71 5489
2015-09-25 3 24 0 17 3955
2015-09-26 2 25 1 77 5774
2015-09-27 3 47 1 88 6711
2015-09-28 2 34 0 79 7065
2015-09-29 0 6 0 27 5105
2015-09-30 1 36 1 85 8164
Août 2015 36 566 12 61 119954
2015-08-01 2 13 0 18 2717
2015-08-02 0 7 0 13 2055
2015-08-03 7 20 2 15 2199
2015-08-04 1 9 0 40 3590
2015-08-05 0 13 0 16 2911
2015-08-06 0 5 0 14 2574
2015-08-07 0 22 0 17 3967
2015-08-08 0 14 0 17 3023
2015-08-09 5 32 1 18 2992
2015-08-10 2 30 1 17 4088
2015-08-11 1 16 1 15 2652
2015-08-12 3 23 0 16 2544
2015-08-13 0 7 0 14 2436
2015-08-14 0 8 0 55 4945
2015-08-15 1 11 0 52 4116
2015-08-16 0 12 0 13 2678
2015-08-17 0 2 0 54 3352
2015-08-18 0 6 0 49 3473
2015-08-19 0 2 0 29 2985
2015-08-20 1 13 1 19 3315
2015-08-21 0 13 0 54 5973
2015-08-22 0 4 0 13 4672
2015-08-23 3 21 1 21 3708
2015-08-24 2 33 2 19 4048
2015-08-25 1 46 1 25 5182
2015-08-26 0 17 0 18 5281
2015-08-27 0 23 0 28 5761
2015-08-28 1 44 1 17 5899
2015-08-29 0 37 0 43 5544
2015-08-30 1 26 1 43 3953
2015-08-31 5 37 0 61 7321
Juillet 2015 29 462 7 31 89666
Juin 2015 24 453 5 30 112317
Mai 2015 30 390 2 24 73874
2015-05-01 0 17 0 15 2030
2015-05-02 1 16 0 16 2557
2015-05-03 1 29 0 18 2371
2015-05-04 2 17 0 21 1947
2015-05-05 0 2 0 16 1636
2015-05-06 0 8 0 15 2047
2015-05-07 0 6 0 14 2022
2015-05-08 0 3 0 15 1847
2015-05-09 0 5 0 18 1813
2015-05-10 2 5 0 13 1887
2015-05-11 0 6 0 14 1631
2015-05-12 2 20 1 13 2423
2015-05-13 0 11 0 13 2977
2015-05-14 0 11 0 24 3549
2015-05-15 2 11 0 18 2773
2015-05-16 1 3 1 15 2585
2015-05-17 0 6 0 12 2212
2015-05-18 4 29 0 14 2715
2015-05-19 0 8 0 15 1683
2015-05-20 0 3 0 12 1911
2015-05-21 1 4 0 13 2338
2015-05-22 1 8 0 12 1807
2015-05-23 1 6 0 15 2186
2015-05-24 2 15 0 19 4554
2015-05-25 1 21 0 24 2499
2015-05-26 2 20 0 18 2489
2015-05-27 0 21 0 17 1695
2015-05-28 3 38 0 14 2854
2015-05-29 4 23 0 15 4584
2015-05-30 0 13 0 16 1591
2015-05-31 0 5 0 11 2661
Avril 2015 29 408 4 25 95371
Mars 2015 38 550 7 37 130116
Février 2015 15 434 2 24 123854
Janvier 2015 32 490 5 44 121201
2015-01-01 2 23 0 19 3144
2015-01-02 0 16 0 15 4048
2015-01-03 0 15 0 22 3759
2015-01-04 0 4 0 19 3288
2015-01-05 2 20 0 15 4716
2015-01-06 0 5 0 22 4665
2015-01-07 7 37 1 20 4235
2015-01-08 0 17 0 18 5827
2015-01-09 2 10 0 21 3910
2015-01-10 0 16 0 18 3671
2015-01-11 0 8 0 20 4832
2015-01-12 4 17 0 21 3973
2015-01-13 2 14 0 14 2410
2015-01-14 0 16 0 15 3118
2015-01-15 2 38 1 17 3532
2015-01-16 0 23 0 18 3617
2015-01-17 0 13 0 17 2699
2015-01-18 2 13 0 18 3678
2015-01-19 5 16 0 16 3676
2015-01-20 0 12 1 19 3624
2015-01-21 1 12 0 20 2778
2015-01-22 0 8 1 16 6250
2015-01-23 1 18 0 18 2801
2015-01-24 0 14 0 44 3349
2015-01-25 0 8 0 18 6193
2015-01-26 0 25 0 21 4761
2015-01-27 1 23 1 18 6578
2015-01-28 0 4 0 16 2032
2015-01-29 0 15 0 15 3742
2015-01-30 0 16 0 13 2970
2015-01-31 1 14 0 14 3325
* 2014 428 7364 58 58 2478164
Décembre 2014 24 360 4 33 191610
Novembre 2014 37 572 7 46 525858
Octobre 2014 45 928 8 58 364915
Septembre 2014 24 549 8 32 162413
Août 2014 17 251 4 27 191624
2014-08-01 0 11 0 17 4869
2014-08-02 2 8 0 20 4008
2014-08-03 5 21 0 22 3930
2014-08-04 0 13 0 27 7210
2014-08-05 2 12 1 24 7177
2014-08-06 0 16 0 27 6701
2014-08-07 0 7 0 25 3965
2014-08-08 0 13 0 27 6141
2014-08-09 0 2 0 21 4733
2014-08-10 1 21 1 23 5317
2014-08-11 0 0 0 22 5671
2014-08-12 0 7 0 24 6599
2014-08-13 0 1 0 15 4833
2014-08-14 0 1 1 17 5819
2014-08-15 0 0 0 18 6630
2014-08-16 1 9 0 21 6366
2014-08-17 0 11 0 19 6206
2014-08-18 0 3 0 19 7614
2014-08-19 1 2 0 25 6728
2014-08-20 1 6 0 27 8084
2014-08-21 0 8 0 27 9580
2014-08-22 1 6 0 25 9362
2014-08-23 0 7 0 22 6382
2014-08-24 2 6 0 22 5960
2014-08-25 0 5 0 25 5413
2014-08-26 0 9 0 24 6547
2014-08-27 0 5 0 23 5741
2014-08-28 0 6 0 21 6634
2014-08-29 1 9 1 25 5677
2014-08-30 0 3 0 22 6121
2014-08-31 0 23 0 23 5606
Juillet 2014 25 369 3 30 236312
Juin 2014 29 602 3 32 220918
Mai 2014 34 842 6 29 157174
Avril 2014 45 662 1 25 104486
Mars 2014 32 595 4 26 120439
Février 2014 24 660 5 28 102996
Janvier 2014 92 974 5 33 99419
* 2013 408 8887 76 89 1597727
Décembre 2013 36 785 2 79 132305
Novembre 2013 36 751 8 29 141119
Octobre 2013 37 683 10 26 116570
Septembre 2013 33 723 15 29 160779
Août 2013 20 356 4 30 113960
Juillet 2013 21 331 2 24 120164
Juin 2013 40 731 5 34 119512
2013-06-01 1 13 0 17 3096
2013-06-02 1 17 0 18 3028
2013-06-03 1 22 0 16 3372
2013-06-04 1 19 0 19 3324
2013-06-05 0 14 0 23 4819
2013-06-06 0 17 1 19 4481
2013-06-07 1 13 0 18 4526
2013-06-08 1 3 0 15 2042
2013-06-09 2 11 1 15 4963
2013-06-10 3 33 0 18 4947
2013-06-11 4 51 0 17 4344
2013-06-12 2 18 0 16 4209
2013-06-13 3 41 0 19 3396
2013-06-14 0 37 0 17 3142
2013-06-15 1 14 0 15 3196
2013-06-16 3 39 0 19 3462
2013-06-17 2 58 1 21 4811
2013-06-18 0 20 0 18 3636
2013-06-19 3 40 0 17 3088
2013-06-20 0 26 0 15 5656
2013-06-21 0 27 0 19 4727
2013-06-22 4 27 0 16 3816
2013-06-23 0 36 0 16 4764
2013-06-24 1 33 1 34 5519
2013-06-25 0 21 1 18 3850
2013-06-26 1 15 0 22 3883
2013-06-27 2 30 0 21 3739
2013-06-28 2 18 0 17 4453
2013-06-29 1 12 0 17 3440
2013-06-30 0 6 0 21 3783
Mai 2013 34 881 3 47 157484
Avril 2013 38 799 8 33 124279
Mars 2013 40 1111 9 62 147762
Février 2013 32 838 5 79 125299
Janvier 2013 41 898 5 89 138494
2013-01-01 3 41 0 18 3294
2013-01-02 0 40 0 32 4176
2013-01-03 0 19 1 15 3604
2013-01-04 1 25 1 37 4312
2013-01-05 3 14 0 15 4484
2013-01-06 4 45 0 18 3481
2013-01-07 2 32 0 18 3613
2013-01-08 2 17 0 22 3963
2013-01-09 0 19 0 24 3801
2013-01-10 1 31 0 18 3318
2013-01-11 0 14 0 17 2898
2013-01-12 1 23 0 41 3129
2013-01-13 1 41 0 36 3414
2013-01-14 1 28 0 41 3865
2013-01-15 5 56 0 20 4435
2013-01-16 1 33 0 39 4394
2013-01-17 1 50 0 38 4104
2013-01-18 0 17 0 31 4143
2013-01-19 2 23 0 17 3723
2013-01-20 2 24 0 22 4177
2013-01-21 1 31 0 24 5005
2013-01-22 0 15 1 19 3874
2013-01-23 0 34 0 16 3985
2013-01-24 4 34 0 21 4457
2013-01-25 0 23 0 14 4216
2013-01-26 0 13 0 63 7035
2013-01-27 1 23 1 89 8106
2013-01-28 0 38 0 55 6946
2013-01-29 0 29 0 52 5581
2013-01-30 1 30 1 54 6998
2013-01-31 4 36 0 39 5963
* 2012 446 10690 67 157 1274957
Décembre 2012 57 1411 4 45 150137
Novembre 2012 46 1137 8 25 112399
2012-11-01 4 28 0 21 2832
2012-11-02 4 55 0 18 3206
2012-11-03 0 21 0 22 3154
2012-11-04 0 31 0 15 2586
2012-11-05 4 82 1 25 4080
2012-11-06 2 42 0 16 3097
2012-11-07 1 48 0 22 4970
2012-11-08 0 28 0 16 3568
2012-11-09 1 49 0 19 4597
2012-11-10 1 10 0 16 2795
2012-11-11 0 17 0 21 2967
2012-11-12 0 23 0 18 3459
2012-11-13 5 42 1 19 3524
2012-11-14 3 51 2 19 5413
2012-11-15 2 33 0 22 3002
2012-11-16 0 25 0 17 3266
2012-11-17 0 18 0 14 3418
2012-11-18 3 41 0 19 3365
2012-11-19 1 47 0 22 3809
2012-11-20 3 55 0 21 3598
2012-11-21 2 73 2 23 4155
2012-11-22 1 32 0 18 4168
2012-11-23 0 29 0 21 3704
2012-11-24 0 16 0 24 3065
2012-11-25 3 46 0 15 3966
2012-11-26 3 68 1 20 5492
2012-11-27 1 36 0 18 5358
2012-11-28 1 50 0 25 3829
2012-11-29 1 29 1 25 4706
2012-11-30 0 12 0 15 3250
Octobre 2012 45 1068 7 25 80970
2012-10-01 4 36 0 16 2575
2012-10-02 0 19 0 16 2057
2012-10-03 1 21 0 14 1771
2012-10-04 1 15 0 25 2211
2012-10-05 1 6 0 16 1729
2012-10-06 0 3 0 14 1339
2012-10-07 1 25 1 13 1948
2012-10-08 0 43 0 14 3370
2012-10-09 1 36 0 21 2924
2012-10-10 2 46 0 17 2361
2012-10-11 1 54 0 17 3608
2012-10-12 0 22 0 16 1810
2012-10-13 3 37 1 14 2059
2012-10-14 2 57 1 21 2843
2012-10-15 2 67 0 18 2859
2012-10-16 0 35 0 17 2927
2012-10-17 2 68 0 23 3599
2012-10-18 1 42 1 20 2644
2012-10-19 1 60 0 15 2712
2012-10-20 1 18 1 15 2052
2012-10-21 6 55 1 14 2785
2012-10-22 2 43 0 16 2612
2012-10-23 1 35 0 20 2967
2012-10-24 1 22 0 16 2174
2012-10-25 0 23 0 14 2367
2012-10-26 0 25 0 13 2731
2012-10-27 0 4 0 13 2966
2012-10-28 3 43 1 19 4497
2012-10-29 1 31 0 22 3134
2012-10-30 5 43 0 17 2931
2012-10-31 2 34 0 20 2408
Septembre 2012 37 876 11 38 107023
Août 2012 30 595 5 41 95032
Juillet 2012 24 563 2 157 78638
2012-07-01 2 33 0 20 3383
2012-07-02 0 39 0 16 3176
2012-07-03 1 42 0 21 2769
2012-07-04 0 21 0 18 2427
2012-07-05 0 28 0 19 2191
2012-07-06 0 29 0 15 2402
2012-07-07 2 10 0 25 4165
2012-07-08 0 13 1 17 1741
2012-07-09 2 18 0 14 3585
2012-07-10 2 24 0 14 2317
2012-07-11 0 39 0 22 3204
2012-07-12 0 32 0 14 1963
2012-07-13 1 28 0 16 1977
2012-07-14 0 17 0 16 1834
2012-07-15 3 22 0 30 3446
2012-07-16 1 11 0 26 3044
2012-07-17 0 5 0 13 1616
2012-07-18 2 14 0 15 1754
2012-07-19 0 21 0 13 2427
2012-07-20 0 15 0 18 1824
2012-07-21 0 10 0 10 1292
2012-07-22 0 6 0 18 1434
2012-07-23 1 7 0 17 1873
2012-07-24 2 8 0 157 7112
2012-07-25 2 13 1 13 1667
2012-07-26 1 6 0 14 1478
2012-07-27 1 14 0 16 2610
2012-07-28 0 6 0 17 2026
2012-07-29 0 11 0 16 2266
2012-07-30 1 11 0 15 2745
2012-07-31 0 10 0 17 2890
Juin 2012 39 984 10 33 88620
Mai 2012 22 703 5 26 77701
2012-05-01 2 31 0 24 2676
2012-05-02 2 37 0 16 2377
2012-05-03 1 28 0 17 2595
2012-05-04 0 32 0 17 2833
2012-05-05 2 29 1 21 2604
2012-05-06 0 26 0 19 3019
2012-05-07 1 23 0 15 2984
2012-05-08 1 21 0 15 2018
2012-05-09 0 22 0 15 1937
2012-05-10 3 29 1 26 2194
2012-05-11 1 18 0 17 2614
2012-05-12 0 25 0 18 2467
2012-05-13 1 21 0 15 1929
2012-05-14 0 19 0 15 2270
2012-05-15 0 20 0 13 2021
2012-05-16 2 19 1 20 1978
2012-05-17 0 28 0 17 2478
2012-05-18 1 11 0 13 2280
2012-05-19 0 14 0 17 2552
2012-05-20 0 12 0 20 2256
2012-05-21 0 14 0 20 3771
2012-05-22 1 14 0 17 1888
2012-05-23 2 32 1 14 2221
2012-05-24 0 39 1 16 2279
2012-05-25 0 20 0 13 2197
2012-05-26 0 11 0 12 2044
2012-05-27 0 17 0 16 2881
2012-05-28 0 19 0 13 2192
2012-05-29 2 26 0 19 2789
2012-05-30 0 14 0 19 4625
2012-05-31 0 32 0 17 2732
Avril 2012 33 714 4 33 95151
Mars 2012 35 977 5 48 160160
Février 2012 34 704 5 33 117877
Janvier 2012 44 958 1 30 111249
* 2011 822 21877 118 48 1861895
Décembre 2011 68 1315 7 36 141929
Novembre 2011 94 1539 4 36 150015
Octobre 2011 81 1597 13 41 169207
Septembre 2011 96 1991 19 24 158540
Août 2011 68 1372 16 48 135201
Juillet 2011 57 1156 10 30 112626
Juin 2011 40 1214 6 31 149115
Mai 2011 64 1997 8 39 181997
Avril 2011 46 1637 9 38 176986
Mars 2011 54 2388 6 31 211307
Février 2011 59 2656 5 46 128248
Janvier 2011 95 3015 15 44 146724
2011-01-01 4 28 1 33 3209
2011-01-02 3 53 0 27 3194
2011-01-03 4 120 0 23 4999
2011-01-04 4 123 0 25 4781
2011-01-05 2 129 0 36 4810
2011-01-06 3 97 1 27 4554
2011-01-07 0 98 0 25 4909
2011-01-08 1 28 1 20 3049
2011-01-09 3 61 0 20 3543
2011-01-10 3 87 0 36 4897
2011-01-11 1 79 1 25 4007
2011-01-12 2 149 0 34 5515
2011-01-13 6 143 3 40 5584
2011-01-14 5 244 0 29 8061
2011-01-15 1 41 0 36 4401
2011-01-16 9 38 0 23 3832
2011-01-17 2 153 0 44 6302
2011-01-18 4 85 0 32 5425
2011-01-19 4 92 0 29 4997
2011-01-20 5 99 1 25 4295
2011-01-21 3 75 0 30 4089
2011-01-22 3 45 1 32 3479
2011-01-23 1 85 1 32 4851
2011-01-24 1 79 0 35 4531
2011-01-25 2 98 0 30 5112
2011-01-26 4 137 3 25 5274
2011-01-27 1 118 0 27 5128
2011-01-28 4 130 1 32 5328
2011-01-29 1 78 0 25 4103
2011-01-30 2 58 0 33 3935
2011-01-31 7 165 1 33 6530
* 2010 615 23079 70 91 1409620
Décembre 2010 54 2635 5 43 199984
Novembre 2010 59 2475 6 49 127779
2010-11-01 2 69 0 42 4918
2010-11-02 4 147 0 40 5882
2010-11-03 1 134 0 34 4974
2010-11-04 4 98 0 28 4484
2010-11-05 3 140 0 34 4770
2010-11-06 1 30 0 25 2633
2010-11-07 1 56 0 25 3634
2010-11-08 1 50 0 37 4890
2010-11-09 2 60 1 38 3406
2010-11-10 3 87 0 41 4949
2010-11-11 2 48 0 40 3457
2010-11-12 1 54 0 28 3255
2010-11-13 1 41 0 24 2528
2010-11-14 2 94 0 37 4624
2010-11-15 1 129 1 49 4879
2010-11-16 1 82 0 33 4288
2010-11-17 0 44 0 27 4513
2010-11-18 1 65 0 22 3684
2010-11-19 2 72 2 23 3586
2010-11-20 4 70 0 24 3798
2010-11-21 3 70 0 26 3650
2010-11-22 3 81 0 30 4196
2010-11-23 1 80 0 26 4872
2010-11-24 3 110 1 27 4984
2010-11-25 3 129 1 33 4861
2010-11-26 1 85 0 32 4900
2010-11-27 1 38 0 27 3096
2010-11-28 0 46 0 34 3836
2010-11-29 3 111 0 33 4893
2010-11-30 4 155 0 33 5339
Octobre 2010 56 2811 15 58 134942
Septembre 2010 53 1528 8 29 95249
Août 2010 32 1287 6 33 89617
Juillet 2010 34 1637 5 32 97290
Juin 2010 46 2137 3 28 109648
Mai 2010 50 1497 6 28 99050
Avril 2010 45 1888 3 26 102219
2010-04-01 3 88 0 18 4705
2010-04-02 1 97 1 17 5127
2010-04-03 0 48 1 16 4067
2010-04-04 0 25 0 17 3540
2010-04-05 2 54 0 15 3258
2010-04-06 0 69 0 19 3639
2010-04-07 1 67 0 19 3590
2010-04-08 5 109 0 25 4043
2010-04-09 2 117 0 22 4430
2010-04-10 0 44 0 17 2821
2010-04-11 2 71 0 18 3408
2010-04-12 2 101 0 21 4509
2010-04-13 1 64 0 16 3272
2010-04-14 2 56 0 19 3587
2010-04-15 2 42 1 20 3071
2010-04-16 2 48 0 18 3184
2010-04-17 0 37 0 17 2301
2010-04-18 0 20 0 17 2342
2010-04-19 1 45 0 22 3138
2010-04-20 2 70 0 18 3550
2010-04-21 1 33 0 16 2917
2010-04-22 2 70 0 26 3255
2010-04-23 0 60 0 22 3359
2010-04-24 4 34 0 16 2265
2010-04-25 4 71 0 18 2831
2010-04-26 1 105 0 23 3707
2010-04-27 3 68 0 19 2863
2010-04-28 0 43 0 20 3119
2010-04-29 0 61 0 16 3058
2010-04-30 2 71 0 15 3263
Mars 2010 53 1534 2 46 118201
2010-03-01 2 57 0 30 3808
2010-03-02 1 43 0 28 3278
2010-03-03 1 50 0 25 3337
2010-03-04 1 45 0 29 2857
2010-03-05 2 45 0 23 2770
2010-03-06 0 15 1 22 3117
2010-03-07 3 37 1 27 3446
2010-03-08 2 103 0 29 4766
2010-03-09 4 45 0 30 3965
2010-03-10 1 57 0 29 4220
2010-03-11 1 71 0 36 4632
2010-03-12 0 25 0 30 4266
2010-03-13 4 54 0 32 4286
2010-03-14 1 46 0 16 4716
2010-03-15 2 68 0 35 4863
2010-03-16 0 24 0 29 4037
2010-03-17 3 52 0 26 4054
2010-03-18 2 43 0 25 3982
2010-03-19 0 43 0 46 4350
2010-03-20 1 24 0 28 3099
2010-03-21 4 43 0 27 3413
2010-03-22 6 57 0 19 3536
2010-03-23 2 73 0 16 3468
2010-03-24 1 69 0 24 3359
2010-03-25 1 37 0 19 3480
2010-03-26 0 40 0 21 3801
2010-03-27 0 21 0 16 2808
2010-03-28 2 34 0 17 3354
2010-03-29 3 83 0 15 4329
2010-03-30 1 60 0 19 3857
2010-03-31 2 70 0 21 4947
Février 2010 65 1574 4 91 117274
Janvier 2010 68 2076 7 43 118367
* 2009 752 28223 96 159 970278
Décembre 2009 39 2001 5 54 122418
2009-12-01 2 99 0 21 3827
2009-12-02 0 91 0 20 3658
2009-12-03 3 128 0 22 4078
2009-12-04 2 111 0 23 3795
2009-12-05 1 47 1 17 2228
2009-12-06 2 48 0 17 3135
2009-12-07 1 116 1 27 3862
2009-12-08 1 58 0 19 4184
2009-12-09 1 94 0 33 3923
2009-12-10 0 72 0 38 3566
2009-12-11 1 46 0 25 2665
2009-12-12 1 38 0 29 2266
2009-12-13 0 42 0 28 1478
2009-12-14 2 86 0 26 2993
2009-12-15 2 128 0 32 3520
2009-12-16 3 89 0 25 3587
2009-12-17 2 106 0 31 3888
2009-12-18 0 129 0 54 6524
2009-12-19 0 43 0 14 2643
2009-12-20 1 41 0 28 7360
2009-12-21 2 76 0 28 8634
2009-12-22 5 114 1 31 4041
2009-12-23 0 33 0 39 3096
2009-12-24 1 34 0 13 2752
2009-12-25 0 7 0 32 3780
2009-12-26 2 26 0 21 2640
2009-12-27 0 33 1 10 2292
2009-12-28 2 14 1 27 10310
2009-12-29 0 18 0 15 5672
2009-12-30 1 16 0 14 2982
2009-12-31 1 18 0 11 3039
Novembre 2009 59 3138 6 38 117432
Octobre 2009 67 3218 11 18 122232
2009-10-01 0 76 0 11 2516
2009-10-02 1 64 0 10 2579
2009-10-03 2 101 0 11 2851
2009-10-04 1 126 0 12 3520
2009-10-05 4 87 0 15 3448
2009-10-06 5 84 0 13 3357
2009-10-07 3 120 1 11 3765
2009-10-08 3 194 0 14 4579
2009-10-09 0 85 0 11 2918
2009-10-10 3 88 1 11 2279
2009-10-11 4 158 1 12 4547
2009-10-12 3 160 0 13 4399
2009-10-13 4 115 1 16 3779
2009-10-14 1 84 0 13 3531
2009-10-15 0 71 0 14 3213
2009-10-16 0 67 0 17 11597
2009-10-17 1 50 0 17 3148
2009-10-18 0 67 1 16 4508
2009-10-19 4 165 1 18 5455
2009-10-20 0 85 0 14 3066
2009-10-21 3 105 1 12 4822
2009-10-22 2 99 1 13 3611
2009-10-23 2 108 0 15 3666
2009-10-24 1 67 1 12 2884
2009-10-25 1 79 0 15 3733
2009-10-26 3 100 1 13 3989
2009-10-27 5 143 0 15 4733
2009-10-28 0 60 1 12 2921
2009-10-29 1 120 0 14 3964
2009-10-30 4 193 0 17 4507
2009-10-31 6 97 0 15 4347
Septembre 2009 73 2730 14 159 92082
Août 2009 47 1405 8 15 61919
Juillet 2009 68 1737 11 21 67267
2009-07-01 4 69 0 14 2659
2009-07-02 1 67 0 14 2889
2009-07-03 3 120 2 13 3026
2009-07-04 1 34 2 12 1683
2009-07-05 3 64 0 12 1809
2009-07-06 1 84 1 13 2368
2009-07-07 1 48 0 11 1662
2009-07-08 1 41 0 15 1638
2009-07-09 1 44 1 10 1732
2009-07-10 2 66 0 14 2604
2009-07-11 0 31 0 21 1808
2009-07-12 3 59 1 13 2004
2009-07-13 1 32 0 18 2007
2009-07-14 3 33 0 12 1611
2009-07-15 0 53 0 13 1922
2009-07-16 1 60 0 12 1847
2009-07-17 4 83 1 11 2287
2009-07-18 5 30 1 9 1496
2009-07-19 3 31 0 8 1392
2009-07-20 4 127 2 13 3012
2009-07-21 1 71 0 10 2792
2009-07-22 5 65 0 11 2902
2009-07-23 3 53 0 11 2311
2009-07-24 2 42 0 12 4785
2009-07-25 1 24 0 10 1411
2009-07-26 0 18 0 8 1221
2009-07-27 7 76 0 11 2378
2009-07-28 3 67 0 12 2057
2009-07-29 1 39 0 13 1662
2009-07-30 2 35 0 8 2204
2009-07-31 1 71 0 9 2088
Juin 2009 63 2759 4 37 72789
Mai 2009 46 2166 6 16 66386
Avril 2009 101 2850 6 16 73303
Mars 2009 80 3538 7 17 83610
2009-03-01 2 54 0 15 1561
2009-03-02 8 178 2 16 4208
2009-03-03 1 86 0 11 2528
2009-03-04 1 39 0 15 1730
2009-03-05 1 32 0 12 1412
2009-03-06 0 34 0 10 2207
2009-03-07 8 30 0 10 1601
2009-03-08 2 122 0 17 2214
2009-03-09 4 189 0 12 3447
2009-03-10 2 93 0 12 2867
2009-03-11 1 79 0 9 2060
2009-03-12 1 101 0 9 2336
2009-03-13 3 107 0 11 2370
2009-03-14 0 47 0 10 1454
2009-03-15 3 95 0 10 2287
2009-03-16 2 149 0 15 3335
2009-03-17 3 88 0 10 2474
2009-03-18 1 117 2 11 2993
2009-03-19 0 145 0 14 3058
2009-03-20 0 159 0 14 3545
2009-03-21 2 45 1 9 1470
2009-03-22 2 143 0 11 2597
2009-03-23 3 163 0 13 3325
2009-03-24 6 212 0 11 3583
2009-03-25 6 222 0 12 4229
2009-03-26 7 166 0 14 3647
2009-03-27 3 168 0 12 3580
2009-03-28 0 67 1 8 1864
2009-03-29 3 123 1 11 2814
2009-03-30 5 184 0 15 3914
2009-03-31 0 101 0 10 2900
Février 2009 57 1586 6 16 50521
Janvier 2009 52 1095 12 10 40319
* 2008 334 4655 56 26 234055
Décembre 2008 36 663 7 12 28104
Novembre 2008 51 1090 9 10 35948
2008-11-01 3 21 0 5 641
2008-11-02 1 11 0 4 608
2008-11-03 3 25 0 6 607
2008-11-04 1 10 0 7 593
2008-11-05 1 39 0 6 862
2008-11-06 1 30 0 7 800
2008-11-07 0 24 1 6 988
2008-11-08 1 21 0 6 723
2008-11-09 4 34 1 9 1318
2008-11-10 0 37 0 6 898
2008-11-11 1 23 0 6 769
2008-11-12 0 32 0 8 965
2008-11-13 1 46 0 7 1206
2008-11-14 7 80 2 10 1771
2008-11-15 2 24 2 8 1573
2008-11-16 5 105 1 9 2149
2008-11-17 2 78 0 8 1696
2008-11-18 3 99 0 9 1993
2008-11-19 0 49 0 7 2844
2008-11-20 1 13 0 9 760
2008-11-21 5 51 0 7 1231
2008-11-22 2 32 0 9 1665
2008-11-23 0 11 0 8 2071
2008-11-24 0 26 0 6 2046
2008-11-25 3 42 0 6 1092
2008-11-26 0 40 0 8 1012
2008-11-27 0 22 0 5 951
2008-11-28 0 22 1 8 705
2008-11-29 2 23 0 5 721
2008-11-30 2 20 1 5 690
Octobre 2008 50 609 5 10 26582
Septembre 2008 40 619 5 10 24365
Août 2008 28 252 6 9 21916
Juillet 2008 20 256 5 7 16733
2008-07-01 1 11 0 5 499
2008-07-02 0 6 1 3 428
2008-07-03 1 15 0 7 504
2008-07-04 0 11 0 0 562
2008-07-05 0 3 1 5 416
2008-07-06 2 8 0 4 518
2008-07-07 0 6 0 5 766
2008-07-08 1 7 0 5 391
2008-07-09 2 18 0 5 586
2008-07-10 0 9 0 4 473
2008-07-11 0 5 0 0 440
2008-07-12 0 0 0 3 232
2008-07-13 0 2 0 2 270
2008-07-14 0 2 0 3 291
2008-07-15 2 10 0 4 395
2008-07-16 0 6 0 5 497
2008-07-17 1 12 0 4 772
2008-07-18 0 8 1 5 640
2008-07-19 1 6 0 4 328
2008-07-20 0 4 0 4 336
2008-07-21 1 12 1 5 586
2008-07-22 3 17 0 5 650
2008-07-23 0 9 0 4 678
2008-07-24 2 9 1 5 1046
2008-07-25 0 2 0 0 497
2008-07-26 0 4 0 5 493
2008-07-27 1 10 0 6 1290
2008-07-28 1 13 0 4 446
2008-07-29 0 11 0 3 514
2008-07-30 0 12 0 5 698
2008-07-31 1 8 0 0 491
Juin 2008 17 363 6 26 18903
Mai 2008 17 180 2 10 13320
2008-05-01 0 2 0 3 298
2008-05-02 0 7 0 3 301
2008-05-03 0 2 0 3 238
2008-05-04 0 2 0 4 802
2008-05-05 1 4 0 3 331
2008-05-06 0 6 0 0 392
2008-05-07 0 2 0 4 358
2008-05-08 0 1 0 2 277
2008-05-09 0 5 1 4 290
2008-05-10 0 2 0 3 288
2008-05-11 1 2 0 2 369
2008-05-12 1 6 0 5 569
2008-05-13 1 10 0 5 595
2008-05-14 0 16 1 4 626
2008-05-15 3 13 0 0 742
2008-05-16 0 7 0 5 526
2008-05-17 1 7 0 5 478
2008-05-18 0 3 0 4 760
2008-05-19 0 4 0 4 495
2008-05-20 1 5 0 3 347
2008-05-21 0 12 0 4 459
2008-05-22 0 4 0 5 505
2008-05-23 0 3 0 3 360
2008-05-24 1 8 0 4 308
2008-05-25 0 5 0 2 261
2008-05-26 0 7 0 3 260
2008-05-27 0 3 0 10 398
2008-05-28 3 8 0 7 411
2008-05-29 0 5 0 5 350
2008-05-30 1 9 0 0 574
2008-05-31 3 10 0 5 352
Avril 2008 16 146 3 8 16063
2008-04-01 1 11 0 4 553
2008-04-02 0 4 0 7 503
2008-04-03 2 14 1 4 1518
2008-04-04 0 6 0 0 1184
2008-04-05 0 2 0 3 955
2008-04-06 1 4 0 4 680
2008-04-07 1 6 0 4 582
2008-04-08 0 6 0 4 448
2008-04-09 0 1 0 3 419
2008-04-10 1 1 0 5 432
2008-04-11 0 1 0 3 780
2008-04-12 0 4 0 5 909
2008-04-13 0 4 0 3 540
2008-04-14 0 3 1 0 516
2008-04-15 0 1 0 0 343
2008-04-16 0 3 0 0 602
2008-04-17 0 0 0 8 283
2008-04-18 0 1 0 0 415
2008-04-19 0 1 1 4 429
2008-04-20 2 3 0 4 410
2008-04-21 3 15 0 4 521
2008-04-22 0 14 0 6 672
2008-04-23 1 12 0 4 399
2008-04-24 0 3 0 4 350
2008-04-25 0 2 0 4 190
2008-04-26 2 4 0 5 229
2008-04-27 0 2 0 4 308
2008-04-28 0 1 0 4 265
2008-04-29 0 4 0 4 250
2008-04-30 2 13 0 5 378
Mars 2008 18 158 1 9 12835
Février 2008 19 155 2 9 9679
Janvier 2008 22 164 5 7 9607
2008-01-01 0 0 0 3 156
2008-01-02 1 6 0 3 272
2008-01-03 0 4 1 5 375
2008-01-04 0 10 0 5 389
2008-01-05 0 3 1 0 262
2008-01-06 0 3 0 7 269
2008-01-07 1 4 1 0 273
2008-01-08 1 5 0 4 363
2008-01-09 1 6 0 4 353
2008-01-10 2 18 0 4 470
2008-01-11 0 2 0 5 307
2008-01-12 0 0 0 2 173
2008-01-13 0 8 0 3 213
2008-01-14 0 5 0 6 311
2008-01-15 0 4 0 4 276
2008-01-16 0 3 0 4 283
2008-01-17 1 4 0 5 318
2008-01-18 0 7 0 5 340
2008-01-19 1 4 0 5 253
2008-01-20 0 2 1 4 270
2008-01-21 0 4 0 5 319
2008-01-22 2 2 0 0 196
2008-01-23 1 3 0 3 205
2008-01-24 0 6 0 4 222
2008-01-25 0 4 0 4 317
2008-01-26 0 2 0 4 258
2008-01-27 2 4 0 5 300
2008-01-28 4 13 1 5 640
2008-01-29 2 13 0 5 449
2008-01-30 2 9 0 0 384
2008-01-31 1 6 0 4 391
* 2007 276 2246 55 9 102999
Décembre 2007 21 167 5 8 17081
2007-12-01 0 1 0 4 239
2007-12-02 0 2 0 4 264
2007-12-03 1 5 0 4 262
2007-12-04 0 1 0 4 266
2007-12-05 0 0 0 3 201
2007-12-06 0 2 0 4 226
2007-12-07 0 12 0 0 371
2007-12-08 1 3 0 4 451
2007-12-09 2 8 0 4 2230
2007-12-10 2 13 1 5 405
2007-12-11 0 5 1 4 312
2007-12-12 1 10 0 4 317
2007-12-13 0 2 0 0 258
2007-12-14 1 7 0 4 254
2007-12-15 2 6 0 3 303
2007-12-16 0 4 0 3 248
2007-12-17 1 6 0 4 267
2007-12-18 0 1 0 0 233
2007-12-19 2 7 0 3 285
2007-12-20 0 4 1 0 262
2007-12-21 0 3 1 8 313
2007-12-22 4 12 0 5 568
2007-12-23 0 10 0 4 406
2007-12-24 1 7 1 3 4210
2007-12-25 1 9 0 3 296
2007-12-26 0 11 0 5 383
2007-12-27 0 5 0 4 331
2007-12-28 1 6 0 0 326
2007-12-29 1 1 0 0 221
2007-12-30 0 1 0 2 2196
2007-12-31 0 3 0 2 177
Novembre 2007 20 168 3 6 8467
Octobre 2007 21 147 4 5 8193
2007-10-01 3 12 0 3 329
2007-10-02 0 6 0 4 319
2007-10-03 0 3 0 4 296
2007-10-04 2 10 0 3 310
2007-10-05 0 4 0 4 289
2007-10-06 0 0 0 3 208
2007-10-07 1 2 0 5 203
2007-10-08 1 9 1 4 335
2007-10-09 1 3 0 0 267
2007-10-10 1 7 1 3 300
2007-10-11 0 3 0 4 241
2007-10-12 0 2 0 5 251
2007-10-13 1 3 0 3 247
2007-10-14 0 0 0 3 152
2007-10-15 1 3 0 4 225
2007-10-16 0 2 0 2 145
2007-10-17 3 14 0 5 384
2007-10-18 1 5 0 0 378
2007-10-19 1 3 0 0 261
2007-10-20 0 2 0 3 226
2007-10-21 0 7 0 5 265
2007-10-22 0 0 0 3 197
2007-10-23 0 0 0 0 211
2007-10-24 1 2 0 3 164
2007-10-25 0 0 0 4 162
2007-10-26 1 2 0 4 138
2007-10-27 0 0 0 2 243
2007-10-28 2 3 1 4 239
2007-10-29 0 5 0 3 225
2007-10-30 1 20 1 5 587
2007-10-31 0 15 0 0 396
Septembre 2007 22 183 4 9 9896
2007-09-01 1 6 0 4 255
2007-09-02 1 7 1 3 302
2007-09-03 2 13 0 5 572
2007-09-04 1 15 1 9 508
2007-09-05 1 4 1 7 396
2007-09-06 1 23 0 6 618
2007-09-07 1 9 1 0 426
2007-09-08 0 5 0 4 308
2007-09-09 0 2 0 5 280
2007-09-10 1 8 0 0 334
2007-09-11 5 17 0 6 584
2007-09-12 0 3 0 7 335
2007-09-13 0 2 0 8 430
2007-09-14 0 3 0 3 253
2007-09-15 0 1 0 2 169
2007-09-16 0 0 0 3 139
2007-09-17 0 3 0 4 258
2007-09-18 0 1 0 5 289
2007-09-19 1 8 0 4 366
2007-09-20 1 4 0 3 258
2007-09-21 1 5 0 3 285
2007-09-22 0 5 0 7 259
2007-09-23 1 2 0 3 272
2007-09-24 0 8 0 4 304
2007-09-25 1 3 0 3 367
2007-09-26 1 5 0 4 246
2007-09-27 0 2 0 4 261
2007-09-28 0 4 0 4 291
2007-09-29 2 11 0 4 373
2007-09-30 0 4 0 0 158
Août 2007 23 226 2 6 9096
2007-08-01 1 11 0 0 281
2007-08-02 0 4 0 4 224
2007-08-03 2 13 1 0 357
2007-08-04 0 5 0 3 265
2007-08-05 0 0 0 1 129
2007-08-06 1 1 0 2 171
2007-08-07 1 2 0 0 211
2007-08-08 0 0 0 2 132
2007-08-09 1 3 0 2 133
2007-08-10 0 1 0 2 177
2007-08-11 0 0 0 2 104
2007-08-12 0 0 0 3 97
2007-08-13 0 3 0 3 220
2007-08-14 0 0 0 3 199
2007-08-15 0 0 0 0 163
2007-08-16 1 4 0 2 166
2007-08-17 0 6 0 5 274
2007-08-18 0 3 1 3 274
2007-08-19 1 4 0 3 258
2007-08-20 1 14 0 4 417
2007-08-21 2 9 0 3 352
2007-08-22 1 18 0 3 434
2007-08-23 1 12 0 4 412
2007-08-24 0 7 0 6 267
2007-08-25 0 7 0 5 265
2007-08-26 2 11 0 4 363
2007-08-27 1 27 0 6 720
2007-08-28 1 17 0 0 580
2007-08-29 2 9 0 0 492
2007-08-30 3 27 0 5 648
2007-08-31 1 8 0 5 311
Juillet 2007 18 127 1 4 10165
Juin 2007 25 309 2 6 13196
Mai 2007 30 315 8 7 11830
2007-05-01 1 4 0 3 287
2007-05-02 1 6 0 4 196
2007-05-03 0 15 0 4 377
2007-05-04 0 6 0 3 271
2007-05-05 1 5 1 6 235
2007-05-06 0 6 1 3 344
2007-05-07 3 19 0 5 507
2007-05-08 1 14 0 6 449
2007-05-09 0 14 0 4 339
2007-05-10 1 9 1 4 472
2007-05-11 1 18 0 4 499
2007-05-12 3 8 0 5 354
2007-05-13 1 10 0 4 358
2007-05-14 4 25 0 7 643
2007-05-15 0 22 1 4 517
2007-05-16 0 14 0 3 354
2007-05-17 0 3 0 4 229
2007-05-18 0 4 0 5 356
2007-05-19 1 6 0 5 346
2007-05-20 2 14 0 5 515
2007-05-21 2 18 0 6 530
2007-05-22 0 13 1 5 424
2007-05-23 2 11 1 4 427
2007-05-24 0 7 0 3 276
2007-05-25 1 9 0 3 488
2007-05-26 0 3 0 4 251
2007-05-27 3 5 0 3 276
2007-05-28 0 4 2 4 451
2007-05-29 1 11 0 5 439
2007-05-30 0 5 0 4 316
2007-05-31 1 7 0 4 304
Avril 2007 44 428 13 9 13382
Mars 2007 52 176 13 4 1693